Time;durP1;ratioP1;P1;durP2;ratioP2;P2;SDS_P1;SDS_P2;PMS_P1;PMS_P2;Temp;Humidity;BMP_temperature;BMP_pressure;BME280_temperature;BME280_humidity;BME280_pressure;Samples;Min_cycle;Max_cycle;Signal;HPM_P1;HPM_P2
2023/12/02 00:02:19;;;;;;;29.00;17.13;;;;;;;;;;5092754;28;20035;-78
2023/12/02 00:04:45;;;;;;;29.70;16.98;;;;;;;;;;5092398;28;20036;-78
2023/12/02 00:07:11;;;;;;;30.65;18.38;;;;;;;;;;5092309;28;20063;-78
2023/12/02 00:09:37;;;;;;;30.80;17.98;;;;;;;;;;5091855;28;20040;-78
2023/12/02 00:12:03;;;;;;;32.20;18.25;;;;;;;;;;5092215;28;20089;-78
2023/12/02 00:14:30;;;;;;;30.67;18.58;;;3.10;6.80;;;;;;5074310;28;20173;-77
2023/12/02 00:16:56;;;;;;;31.63;17.65;;;;;;;;;;5092219;28;20032;-77
2023/12/02 00:19:22;;;;;;;30.48;18.40;;;;;;;;;;5075189;28;20412;-77
2023/12/02 00:21:49;;;;;;;33.88;18.00;;;;;;;;;;5092486;28;20044;-78
2023/12/02 00:24:15;;;;;;;35.45;20.85;;;;;;;;;;5075441;28;20043;-77
2023/12/02 00:26:41;;;;;;;31.23;17.42;;;;;;;;;;5092407;28;20503;-77
2023/12/02 00:29:07;;;;;;;26.52;16.60;;;;;;;;;;5092008;28;20051;-77
2023/12/02 00:31:33;;;;;;;30.00;16.95;;;;;;;;;;5092492;28;20180;-77
2023/12/02 00:33:59;;;;;;;29.10;17.40;;;;;;;;;;5092360;28;20092;-77
2023/12/02 00:36:25;;;;;;;35.70;19.10;;;;;;;;;;5091699;28;20537;-77
2023/12/02 00:38:51;;;;;;;35.38;18.85;;;;;;;;;;5091471;28;20035;-77
2023/12/02 00:41:17;;;;;;;31.85;18.27;;;;;;;;;;5091656;28;20055;-78
2023/12/02 00:43:43;;;;;;;37.35;19.63;;;;;;;;;;5091893;28;20197;-77
2023/12/02 00:46:09;;;;;;;31.92;17.33;;;;;;;;;;5091573;28;20542;-77
2023/12/02 00:48:35;;;;;;;32.22;17.00;;;;;;;;;;5074717;28;20059;-77
2023/12/02 00:51:01;;;;;;;34.65;19.10;;;;;;;;;;5074512;28;20483;-77
2023/12/02 00:53:27;;;;;;;32.75;18.58;;;;;;;;;;5091642;28;20086;-77
2023/12/02 00:55:53;;;;;;;30.50;17.35;;;;;;;;;;5074579;28;20093;-76
2023/12/02 00:58:19;;;;;;;35.00;18.70;;;;;;;;;;5092268;28;20423;-77
2023/12/02 01:00:45;;;;;;;34.33;17.45;;;;;;;;;;5076524;28;20075;-78
2023/12/02 01:03:11;;;;;;;29.88;17.50;;;;;;;;;;5076043;28;20036;-77
2023/12/02 01:05:36;;;;;;;33.05;19.17;;;3.20;12.70;;;;;;5076158;28;20406;-77
2023/12/02 01:08:02;;;;;;;35.55;18.98;;;;;;;;;;5091242;28;20128;-77
2023/12/02 01:10:28;;;;;;;31.05;17.13;;;;;;;;;;5090871;28;20174;-77
2023/12/02 01:12:54;;;;;;;29.33;17.17;;;;;;;;;;5074185;28;20566;-77
2023/12/02 01:15:20;;;;;;;32.72;18.20;;;;;;;;;;5091296;28;20047;-76
2023/12/02 01:17:46;;;;;;;31.63;17.83;;;;;;;;;;5091006;28;20040;-77
2023/12/02 01:20:12;;;;;;;33.90;18.58;;;;;;;;;;5073953;28;20040;-77
2023/12/02 01:22:38;;;;;;;37.80;19.05;;;;;;;;;;5090872;28;20043;-78
2023/12/02 01:25:04;;;;;;;32.10;18.40;;;;;;;;;;5090670;28;20140;-77
2023/12/02 01:27:30;;;;;;;32.53;18.65;;;;;;;;;;5090802;28;20043;-78
2023/12/02 01:29:56;;;;;;;29.08;17.65;;;;;;;;;;5073828;28;20032;-78
2023/12/02 01:32:22;;;;;;;33.58;18.38;;;;;;;;;;5073974;28;20076;-78
2023/12/02 01:34:48;;;;;;;33.22;18.20;;;;;;;;;;5073766;28;20063;-78
2023/12/02 01:37:14;;;;;;;35.60;19.83;;;;;;;;;;5073724;28;20043;-77
2023/12/02 01:39:40;;;;;;;31.77;18.50;;;;;;;;;;5090376;28;20040;-77
2023/12/02 01:42:06;;;;;;;34.10;18.55;;;3.40;11.40;;;;;;5090906;28;20123;-77
2023/12/02 01:44:32;;;;;;;31.58;17.58;;;;;;;;;;5073785;28;20488;-77
2023/12/02 01:46:59;;;;;;;34.17;17.80;;;;;;;;;;5090597;28;20036;-77
2023/12/02 01:49:25;;;;;;;36.22;19.30;;;;;;;;;;5073316;28;20040;-77
2023/12/02 01:51:52;;;;;;;32.15;19.27;;;;;;;;;;5090743;28;20040;-78
2023/12/02 01:54:19;;;;;;;33.72;19.48;;;;;;;;;;5073658;28;20055;-78
2023/12/02 01:56:46;;;;;;;32.47;19.30;;;3.40;8.70;;;;;;5073603;28;20562;-77
2023/12/02 01:59:13;;;;;;;36.25;19.35;;;;;;;;;;5073406;28;20093;-78
2023/12/02 02:01:39;;;;;;;31.48;18.63;;;;;;;;;;5090722;28;20048;-77
2023/12/02 02:04:05;;;;;;;32.72;19.33;;;3.30;10.40;;;;;;5090289;28;20561;-77
2023/12/02 02:06:31;;;;;;;31.55;18.42;;;;;;;;;;5090579;28;20048;-78
2023/12/02 02:08:57;;;;;;;33.35;18.23;;;;;;;;;;5089924;28;20042;-77
2023/12/02 02:11:23;;;;;;;31.60;17.95;;;;;;;;;;5090287;28;20040;-77
2023/12/02 02:13:49;;;;;;;31.25;18.95;;;;;;;;;;5073496;28;20047;-77
2023/12/02 02:16:15;;;;;;;32.60;19.30;;;3.20;10.00;;;;;;5090595;28;20032;-77
2023/12/02 02:18:41;;;;;;;30.38;16.77;;;;;;;;;;5090012;28;20039;-77
2023/12/02 02:21:07;;;;;;;29.42;17.27;;;;;;;;;;5090087;28;20047;-77
2023/12/02 02:23:33;;;;;;;31.00;17.80;;;;;;;;;;5073270;28;20044;-77
2023/12/02 02:25:59;;;;;;;36.13;20.13;;;;;;;;;;5090212;28;20464;-77
2023/12/02 02:28:27;;;;;;;31.85;17.95;;;3.10;8.40;;;;;;5089943;28;20040;-78
2023/12/02 02:30:53;;;;;;;31.65;18.25;;;;;;;;;;5090249;28;20102;-77
2023/12/02 02:33:19;;;;;;;33.33;19.05;;;;;;;;;;5089996;28;20491;-75
2023/12/02 02:35:45;;;;;;;34.50;18.30;;;;;;;;;;5090056;28;20040;-77
2023/12/02 02:38:11;;;;;;;30.83;17.77;;;;;;;;;;5091911;28;20043;-77
2023/12/02 02:40:38;;;;;;;28.88;16.85;;;;;;;;;;5094181;28;20040;-77
2023/12/02 02:43:05;;;;;;;38.50;19.40;;;;;;;;;;5077584;28;20473;-77
2023/12/02 02:45:31;;;;;;;31.67;18.00;;;;;;;;;;5094327;28;20050;-77
2023/12/02 02:47:57;;;;;;;31.75;18.33;;;;;;;;;;5093992;28;20048;-77
2023/12/02 02:50:23;;;;;;;33.80;18.38;;;3.20;13.00;;;;;;5093874;28;20032;-77
2023/12/02 02:52:48;;;;;;;34.45;18.65;;;3.20;12.90;;;;;;5093368;28;20032;-77
2023/12/02 02:55:14;;;;;;;31.90;19.15;;;;;;;;;;5077227;28;20055;-77
2023/12/02 02:57:40;;;;;;;31.55;18.23;;;;;;;;;;5093664;28;20514;-77
2023/12/02 03:00:10;;;;;;;33.08;18.17;;;;;;;;;;5093402;28;20043;-78
2023/12/02 03:02:37;;;;;;;33.60;18.52;;;;;;;;;;5076628;28;20041;-77
2023/12/02 03:05:04;;;;;;;33.83;18.65;;;;;;;;;;5093929;28;20043;-77
2023/12/02 03:07:30;;;;;;;31.73;17.40;;;3.10;11.90;;;;;;5093530;28;20514;-77
2023/12/02 03:09:56;;;;;;;34.35;18.95;;;;;;;;;;5076896;28;20028;-76
2023/12/02 03:12:23;;;;;;;35.90;20.33;;;;;;;;;;5076581;28;20040;-77
2023/12/02 03:14:49;;;;;;;32.90;18.27;;;;;;;;;;5076351;28;20538;-77
2023/12/02 03:17:14;;;;;;;32.50;18.08;;;3.10;11.40;;;;;;5093339;28;20044;-77
2023/12/02 03:19:41;;;;;;;33.03;18.42;;;;;;;;;;5076015;28;20051;-77
2023/12/02 03:22:07;;;;;;;33.33;18.88;;;;;;;;;;5093959;28;20101;-77
2023/12/02 03:24:33;;;;;;;32.33;19.33;;;;;;;;;;5093227;28;20039;-78
2023/12/02 03:26:59;;;;;;;36.38;19.42;;;;;;;;;;5076621;28;20093;-77
2023/12/02 03:29:25;;;;;;;33.08;18.80;;;;;;;;;;5092874;28;20127;-77
2023/12/02 03:31:51;;;;;;;31.52;19.35;;;;;;;;;;5093186;28;20518;-78
2023/12/02 03:34:17;;;;;;;36.08;18.20;;;;;;;;;;5093061;28;20081;-77
2023/12/02 03:36:43;;;;;;;32.17;18.90;;;;;;;;;;5076123;28;20368;-78
2023/12/02 03:39:12;;;;;;;33.17;21.30;;;;;;;;;;5075852;28;20556;-77
2023/12/02 03:41:38;;;;;;;33.25;18.45;;;;;;;;;;5093278;28;20497;-77
2023/12/02 03:44:04;;;;;;;33.53;17.95;;;3.10;11.60;;;;;;5092848;28;20085;-77
2023/12/02 03:46:30;;;;;;;29.05;17.95;;;;;;;;;;5092883;28;20036;-78
2023/12/02 03:48:57;;;;;;;36.03;18.75;;;;;;;;;;5092367;28;20036;-77
2023/12/02 03:51:23;;;;;;;30.85;17.83;;;;;;;;;;5092534;28;20040;-77
2023/12/02 03:53:49;;;;;;;31.20;18.02;;;;;;;;;;5092694;28;20043;-77
2023/12/02 03:56:15;;;;;;;31.83;18.00;;;;;;;;;;5092870;28;20401;-78
2023/12/02 03:58:41;;;;;;;28.90;18.10;;;;;;;;;;5075535;28;20035;-77
2023/12/02 04:01:07;;;;;;;32.03;18.45;;;;;;;;;;5075532;28;20047;-77
2023/12/02 04:03:33;;;;;;;30.02;16.83;;;3.10;11.50;;;;;;5075659;28;20040;-74
2023/12/02 04:05:59;;;;;;;29.50;17.35;;;;;;;;;;5092461;28;20165;-78
2023/12/02 04:08:25;;;;;;;32.67;19.23;;;;;;;;;;5092298;28;20040;-77
2023/12/02 04:10:51;;;;;;;32.42;18.70;;;;;;;;;;5092132;28;20059;-78
2023/12/02 04:13:17;;;;;;;33.35;18.33;;;;;;;;;;5075642;28;20131;-77
2023/12/02 04:15:44;;;;;;;32.95;17.42;;;3.20;12.30;;;;;;5092129;28;20036;-77
2023/12/02 04:18:10;;;;;;;29.90;17.35;;;;;;;;;;5092059;28;20044;-78
2023/12/02 04:20:36;;;;;;;28.88;16.70;;;;;;;;;;5092188;28;20066;-77
2023/12/02 04:23:02;;;;;;;35.53;17.95;;;;;;;;;;5092118;28;20499;-77
2023/12/02 04:25:28;;;;;;;32.00;18.52;;;;;;;;;;5092326;28;20109;-77
2023/12/02 04:27:54;;;;;;;33.45;17.58;;;;;;;;;;5075041;28;20130;-77
2023/12/02 04:30:20;;;;;;;32.00;18.45;;;;;;;;;;5092125;28;20314;-77
2023/12/02 04:32:46;;;;;;;32.67;19.05;;;;;;;;;;5075317;28;20040;-77
2023/12/02 04:35:13;;;;;;;32.17;18.48;;;;;;;;;;5075401;28;20127;-77
2023/12/02 04:37:38;;;;;;;34.15;19.35;;;;;;;;;;5091882;28;20495;-78
2023/12/02 04:40:09;;;;;;;34.30;20.08;;;;;;;;;;5091583;28;20125;-77
2023/12/02 04:42:35;;;;;;;32.25;18.70;;;;;;;;;;5091719;28;20048;-77
2023/12/02 04:45:01;;;;;;;32.22;17.55;;;;;;;;;;5091616;28;20050;-77
2023/12/02 04:47:27;;;;;;;34.58;18.33;;;;;;;;;;5074988;28;20039;-77
2023/12/02 04:49:53;;;;;;;34.65;20.10;;;;;;;;;;5091270;28;20123;-77
2023/12/02 04:52:19;;;;;;;31.90;18.08;;;;;;;;;;5074961;28;20468;-77
2023/12/02 04:54:45;;;;;;;30.52;18.25;;;3.10;12.70;;;;;;5075053;28;20047;-77
2023/12/02 04:57:11;;;;;;;35.08;19.00;;;;;;;;;;5075137;28;20032;-78
2023/12/02 04:59:37;;;;;;;33.72;19.35;;;;;;;;;;5074536;28;20079;-77
2023/12/02 05:02:03;;;;;;;34.80;20.02;;;;;;;;;;5091192;28;20047;-77
2023/12/02 05:04:29;;;;;;;33.65;19.30;;;;;;;;;;5074664;28;20051;-77
2023/12/02 05:06:55;;;;;;;33.50;17.83;;;;;;;;;;5091530;28;20048;-77
2023/12/02 05:09:21;;;;;;;33.90;18.65;;;;;;;;;;5091045;28;20381;-77
2023/12/02 05:11:47;;;;;;;33.55;18.38;;;;;;;;;;5091109;28;20047;-78
2023/12/02 05:14:13;;;;;;;37.30;20.40;;;;;;;;;;5090945;28;20123;-77
2023/12/02 05:16:42;;;;;;;34.03;18.77;;;;;;;;;;5091099;28;20132;-77
2023/12/02 05:19:08;;;;;;;32.47;19.83;;;;;;;;;;5091021;28;20035;-77
2023/12/02 05:21:37;;;;;;;32.78;19.15;;;3.30;10.90;;;;;;5091012;28;20040;-77
2023/12/02 05:24:03;;;;;;;31.50;18.42;;;;;;;;;;5091208;28;20036;-77
2023/12/02 05:26:29;;;;;;;35.40;18.73;;;;;;;;;;5073897;28;20094;-77
2023/12/02 05:28:54;;;;;;;33.30;18.52;;;;;;;;;;5073651;28;20097;-77
2023/12/02 05:31:21;;;;;;;36.97;19.88;;;;;;;;;;5090759;28;20043;-75
2023/12/02 05:33:47;;;;;;;34.00;19.30;;;;;;;;;;5090799;28;20524;-78
2023/12/02 05:36:13;;;;;;;32.22;18.25;;;;;;;;;;5090835;28;20119;-77
2023/12/02 05:38:39;;;;;;;33.78;18.52;;;;;;;;;;5090553;28;20070;-77
2023/12/02 05:41:05;;;;;;;37.80;19.27;;;;;;;;;;5090772;28;20036;-77
2023/12/02 05:43:31;;;;;;;37.58;19.42;;;;;;;;;;5090614;28;20064;-77
2023/12/02 05:45:57;;;;;;;38.63;22.05;;;;;;;;;;5090672;28;20243;-77
2023/12/02 05:48:24;;;;;;;40.67;19.92;;;;;;;;;;5090699;28;20175;-77
2023/12/02 05:50:50;;;;;;;39.20;20.65;;;;;;;;;;5073301;28;20495;-77
2023/12/02 05:53:16;;;;;;;31.67;18.38;;;;;;;;;;5090795;28;20396;-77
2023/12/02 05:55:42;;;;;;;35.35;18.90;;;;;;;;;;5090536;28;20525;-77
2023/12/02 05:58:08;;;;;;;35.40;19.27;;;;;;;;;;5090194;28;20123;-78
2023/12/02 06:00:37;;;;;;;36.83;19.88;;;;;;;;;;5090410;28;20040;-75
2023/12/02 06:03:03;;;;;;;36.63;19.65;;;;;;;;;;5073652;28;20438;-77
2023/12/02 06:05:30;;;;;;;35.17;19.33;;;;;;;;;;5090376;28;20054;-77
2023/12/02 06:07:55;;;;;;;34.35;18.73;;;;;;;;;;5073542;28;20040;-77
2023/12/02 06:10:21;;;;;;;42.05;20.33;;;;;;;;;;5073211;28;20549;-77
2023/12/02 06:12:48;;;;;;;39.60;20.15;;;;;;;;;;5091479;28;20126;-77
2023/12/02 06:15:14;;;;;;;33.25;19.25;;;;;;;;;;5077775;28;20081;-77
2023/12/02 06:17:40;;;;;;;39.17;19.98;;;;;;;;;;5094393;28;20040;-77
2023/12/02 06:20:06;;;;;;;39.65;20.42;;;;;;;;;;5094480;28;20054;-78
2023/12/02 06:22:33;;;;;;;35.10;20.08;;;3.10;12.20;;;;;;5077500;28;20040;-77
2023/12/02 06:24:59;;;;;;;35.35;20.38;;;;;;;;;;5094424;28;20044;-77
2023/12/02 06:27:25;;;;;;;37.25;19.40;;;;;;;;;;5094304;28;20458;-77
2023/12/02 06:29:51;;;;;;;37.30;20.77;;;;;;;;;;5094024;28;20040;-77
2023/12/02 06:32:17;;;;;;;43.58;22.13;;;;;;;;;;5094511;28;20190;-77
2023/12/02 06:34:42;;;;;;;38.70;18.80;;;3.20;15.90;;;;;;5094156;28;20123;-77
2023/12/02 06:37:08;;;;;;;36.72;19.52;;;;;;;;;;5094432;28;20451;-76
2023/12/02 06:39:34;;;;;;;35.95;19.13;;;;;;;;;;5077128;28;20033;-77
2023/12/02 06:42:00;;;;;;;36.70;20.45;;;;;;;;;;5094127;28;20094;-77
2023/12/02 06:44:26;;;;;;;37.70;20.20;;;;;;;;;;5094190;28;20043;-77
2023/12/02 06:46:52;;;;;;;37.67;20.60;;;;;;;;;;5094138;28;20032;-77
2023/12/02 06:49:18;;;;;;;36.40;19.88;;;;;;;;;;5076724;28;20118;-77
2023/12/02 06:51:44;;;;;;;39.17;20.40;;;;;;;;;;5093637;28;20518;-75
2023/12/02 06:54:10;;;;;;;40.47;21.73;;;;;;;;;;5093799;28;20043;-76
2023/12/02 06:56:36;;;;;;;40.40;21.00;;;;;;;;;;5093701;28;20040;-76
2023/12/02 06:59:03;;;;;;;40.42;21.02;;;;;;;;;;5093317;28;20561;-75
2023/12/02 07:01:30;;;;;;;38.75;19.55;;;3.30;15.10;;;;;;5094004;28;20469;-76
2023/12/02 07:04:00;;;;;;;40.80;20.75;;;3.00;15.30;;;;;;5093656;28;20042;-76
2023/12/02 07:06:27;;;;;;;46.25;22.25;;;3.30;14.80;;;;;;5093824;28;20040;-76
2023/12/02 07:08:54;;;;;;;39.15;19.92;;;;;;;;;;5093452;28;20407;-76
2023/12/02 07:11:20;;;;;;;39.22;20.08;;;;;;;;;;5076528;28;20122;-76
2023/12/02 07:13:47;;;;;;;41.03;19.60;;;;;;;;;;5076738;28;20051;-76
2023/12/02 07:16:13;;;;;;;40.22;20.70;;;;;;;;;;5076920;28;20043;-72
2023/12/02 07:18:39;;;;;;;39.90;21.80;;;3.50;18.30;;;;;;5076604;28;20098;-76
2023/12/02 07:21:06;;;;;;;36.25;19.73;;;;;;;;;;5093755;28;20409;-76
2023/12/02 07:23:32;;;;;;;39.55;20.52;;;;;;;;;;5092718;28;20036;-75
2023/12/02 07:25:58;;;;;;;39.03;21.20;;;;;;;;;;5076281;28;20047;-75
2023/12/02 07:28:25;;;;;;;37.28;20.38;;;;;;;;;;5076026;28;20507;-76
2023/12/02 07:30:51;;;;;;;38.05;19.70;;;;;;;;;;5093094;28;20036;-75
2023/12/02 07:33:19;;;;;;;42.78;21.30;;;;;;;;;;5093129;28;20036;-75
2023/12/02 07:35:45;;;;;;;45.97;23.20;;;;;;;;;;5093188;28;20042;-75
2023/12/02 07:38:11;;;;;;;42.50;21.98;;;;;;;;;;5093003;28;20559;-74
2023/12/02 07:40:36;;;;;;;39.97;21.35;;;3.40;18.80;;;;;;5092964;28;20040;-75
2023/12/02 07:43:02;;;;;;;40.17;21.08;;;;;;;;;;5092941;28;20480;-75
2023/12/02 07:45:28;;;;;;;37.00;19.08;;;;;;;;;;5092951;28;20545;-75
2023/12/02 07:47:54;;;;;;;41.85;20.52;;;;;;;;;;5092909;28;20415;-75
2023/12/02 07:50:21;;;;;;;43.58;21.80;;;;;;;;;;5092675;28;20036;-75
2023/12/02 07:52:47;;;;;;;46.58;22.17;;;3.60;20.50;;;;;;5075493;28;20040;-76
2023/12/02 07:55:13;;;;;;;41.92;22.23;;;3.50;17.40;;;;;;5075793;28;20036;-76
2023/12/02 07:57:39;;;;;;;37.17;20.17;;;;;;;;;;5092609;28;20415;-75
2023/12/02 08:00:07;;;;;;;39.65;20.85;;;;;;;;;;5092542;28;20048;-75
2023/12/02 08:02:33;;;;;;;36.83;19.90;;;;;;;;;;5092548;28;20055;-75
2023/12/02 08:04:59;;;;;;;44.38;23.20;;;;;;;;;;5075684;28;20040;-75
2023/12/02 08:07:25;;;;;;;40.72;21.80;;;;;;;;;;5092365;28;20044;-76
2023/12/02 08:09:51;;;;;;;37.05;20.50;;;3.60;21.10;;;;;;5091949;28;20152;-75
2023/12/02 08:12:17;;;;;;;38.60;20.77;;;;;;;;;;5092401;28;20167;-75
2023/12/02 08:14:43;;;;;;;41.20;20.98;;;;;;;;;;5092478;28;20564;-75
2023/12/02 08:17:09;;;;;;;42.67;21.98;;;;;;;;;;5092249;28;20127;-76
2023/12/02 08:19:35;;;;;;;44.60;22.92;;;;;;;;;;5075419;28;20169;-76
2023/12/02 08:22:01;;;;;;;42.30;21.38;;;;;;;;;;5092156;28;20044;-75
2023/12/02 08:24:27;;;;;;;43.83;23.70;;;;;;;;;;5092120;28;20036;-76
2023/12/02 08:26:53;;;;;;;39.97;21.23;;;;;;;;;;5092050;28;20061;-76
2023/12/02 08:29:19;;;;;;;41.13;20.98;;;;;;;;;;5091879;28;20160;-76
2023/12/02 08:31:45;;;;;;;44.78;21.33;;;;;;;;;;5091977;28;20191;-75
2023/12/02 08:34:11;;;;;;;42.25;21.38;;;;;;;;;;5091802;28;20135;-75
2023/12/02 08:36:37;;;;;;;41.13;21.33;;;;;;;;;;5090936;28;20044;-75
2023/12/02 08:39:04;;;;;;;41.03;21.58;;;;;;;;;;5091515;28;20032;-76
2023/12/02 08:41:31;;;;;;;44.28;22.73;;;;;;;;;;5091870;28;20046;-75
2023/12/02 08:43:57;;;;;;;40.67;20.30;;;;;;;;;;5075050;28;20050;-75
2023/12/02 08:46:23;;;;;;;38.83;20.42;;;;;;;;;;5091690;28;20040;-76
2023/12/02 08:48:49;;;;;;;41.97;20.75;;;;;;;;;;5074366;28;20044;-76
2023/12/02 08:51:15;;;;;;;40.75;20.83;;;;;;;;;;5091313;28;20036;-75
2023/12/02 08:53:41;;;;;;;37.70;20.05;;;;;;;;;;5091480;28;20040;-76
2023/12/02 08:56:07;;;;;;;35.67;20.02;;;3.90;20.30;;;;;;5091456;28;20388;-75
2023/12/02 08:58:33;;;;;;;36.50;20.33;;;;;;;;;;5091295;28;20035;-76
2023/12/02 09:00:59;;;;;;;40.63;21.33;;;;;;;;;;5091204;28;20461;-75
2023/12/02 09:03:25;;;;;;;41.90;21.95;;;;;;;;;;5091535;28;20101;-75
2023/12/02 09:05:55;;;;;;;38.88;19.90;;;4.20;20.30;;;;;;5091357;28;20492;-76
2023/12/02 09:08:21;;;;;;;39.85;19.33;;;;;;;;;;5074096;28;20032;-75
2023/12/02 09:10:47;;;;;;;38.72;20.92;;;;;;;;;;5115265;22;20426;-70
2023/12/02 09:13:43;;;;;;;36.15;18.92;;;4.10;20.00;;;;;;5091104;28;20059;-70
2023/12/02 09:16:15;;;;;;;42.35;21.35;;;;;;;;;;5070066;28;20058;-70
2023/12/02 09:18:41;;;;;;;39.53;20.83;;;;;;;;;;5090860;28;20083;-70
2023/12/02 09:21:27;;;;;;;40.25;21.42;;;;;;;;;;5074342;28;20479;-70
2023/12/02 09:23:54;;;;;;;40.45;21.88;;;;;;;;;;5083934;28;20507;-70
2023/12/02 09:26:40;;;;;;;43.15;20.80;;;;;;;;;;5074294;28;20518;-70
2023/12/02 09:29:06;;;;;;;37.90;20.42;;;;;;;;;;5090764;28;20392;-70
2023/12/02 09:31:33;;;;;;;39.53;20.23;;;;;;;;;;5073859;28;20046;-70
2023/12/02 09:34:00;;;;;;;35.00;19.40;;;;;;;;;;5090768;28;20044;-70
2023/12/02 09:36:32;;;;;;;36.65;19.88;;;;;;;;;;5090959;28;20381;-70
2023/12/02 09:39:23;;;;;;;39.30;20.63;;;4.30;19.00;;;;;;5073715;28;20115;-70
2023/12/02 09:41:50;;;;;;;36.03;20.48;;;4.30;19.10;;;;;;5080614;28;20416;-70
2023/12/02 09:44:28;;;;;;;37.97;19.83;;;4.60;19.20;;;;;;5090935;28;20483;-70
2023/12/02 09:47:03;;;;;;;34.88;18.33;;;;;;;;;;5090704;28;20478;-70
2023/12/02 09:49:45;;;;;;;34.13;18.08;;;;;;;;;;5090319;28;20043;-70
2023/12/02 09:52:11;;;;;;;31.65;18.30;;;;;;;;;;5090354;28;20048;-70
2023/12/02 09:54:57;;;;;;;39.60;19.63;;;4.70;16.90;;;;;;5090767;28;20032;-70
2023/12/02 09:57:29;;;;;;;37.63;18.98;;;;;;;;;;5090789;28;20036;-70
2023/12/02 10:00:15;;;;;;;37.45;19.85;;;4.80;17.30;;;;;;5090276;28;20044;-70
2023/12/02 10:02:56;;;;;;;37.20;20.23;;;;;;;;;;5073719;28;20553;-70
2023/12/02 10:05:22;;;;;;;37.53;20.27;;;;;;;;;;5090404;28;20040;-70
2023/12/02 10:07:48;;;;;;;35.10;18.33;;;;;;;;;;5073798;28;20048;-70
2023/12/02 10:10:21;;;;;;;32.22;17.80;;;5.00;16.00;;;;;;5090147;28;20089;-70
2023/12/02 10:13:07;;;;;;;35.40;17.63;;;5.20;15.80;;;;;;5073683;28;20040;-70
2023/12/02 10:15:39;;;;;;;26.92;15.05;;;4.80;14.90;;;;;;5090338;28;20044;-70
2023/12/02 10:18:12;;;;;;;27.80;14.60;;;;;;;;;;5091594;28;20058;-69
2023/12/02 10:20:41;;;;;;;27.10;14.82;;;5.30;14.10;;;;;;5073376;28;20044;-70
2023/12/02 10:23:31;;;;;;;26.77;14.68;;;5.20;13.30;;;;;;5090483;28;20075;-70
2023/12/02 10:26:23;;;;;;;27.85;15.57;;;5.30;14.00;;;;;;5073609;28;20520;-69
2023/12/02 10:29:04;;;;;;;30.98;14.95;;;;;;;;;;5090082;28;20051;-70
2023/12/02 10:31:31;;;;;;;23.83;13.77;;;;;;;;;;5090132;28;20036;-70
2023/12/02 10:34:06;;;;;;;23.40;12.23;;;5.40;13.20;;;;;;5090175;28;20053;-71
2023/12/02 10:36:33;;;;;;;24.98;12.93;;;5.10;14.00;;;;;;5090341;28;20039;-70
2023/12/02 10:39:10;;;;;;;20.05;11.48;;;5.30;14.20;;;;;;5090359;28;20368;-70
2023/12/02 10:41:43;;;;;;;19.75;10.63;;;;;;;;;;5073305;28;20040;-69
2023/12/02 10:44:10;;;;;;;22.17;11.27;;;;;;;;;;5090324;28;20337;-70
2023/12/02 10:46:39;;;;;;;22.20;12.43;;;5.60;17.90;;;;;;5090312;28;20399;-70
2023/12/02 10:49:05;;;;;;;21.75;11.15;;;5.60;20.90;;;;;;5090050;28;20044;-70
2023/12/02 10:51:37;;;;;;;19.10;10.20;;;5.70;22.50;;;;;;5072841;28;20044;-70
2023/12/02 10:54:05;;;;;;;18.75;10.80;;;5.70;20.80;;;;;;5090000;28;20526;-70
2023/12/02 10:56:35;;;;;;;20.75;10.40;;;5.80;23.90;;;;;;5073124;28;20039;-71
2023/12/02 10:59:02;;;;;;;18.10;9.75;;;5.80;23.80;;;;;;5090998;28;20097;-70
2023/12/02 11:01:37;;;;;;;18.30;9.75;;;5.80;24.90;;;;;;5093908;28;20451;-70
2023/12/02 11:04:15;;;;;;;18.38;9.60;;;5.80;25.70;;;;;;5093644;28;20043;-69
2023/12/02 11:06:51;;;;;;;14.13;8.23;;;6.00;25.80;;;;;;5093612;28;20047;-70
2023/12/02 11:09:24;;;;;;;15.18;8.82;;;;;;;;;;5093098;28;20036;-70
2023/12/02 11:11:53;;;;;;;23.40;10.90;;;;;;;;;;5076649;28;20399;-70
2023/12/02 11:14:21;;;;;;;16.17;9.32;;;;;;;;;;5093697;28;20152;-71
2023/12/02 11:16:53;;;;;;;22.83;10.75;;;;;;;;;;5093681;28;20402;-71
2023/12/02 11:19:37;;;;;;;14.05;8.10;;;;;;;;;;5093358;28;20081;-69
2023/12/02 11:22:22;;;;;;;15.13;8.10;;;;;;;;;;5076336;28;20240;-70
2023/12/02 11:25:01;;;;;;;18.25;10.48;;;;;;;;;;5093519;28;20040;-71
2023/12/02 11:27:46;;;;;;;15.20;7.32;;;;;;;;;;5076424;28;20172;-71
2023/12/02 11:30:19;;;;;;;14.23;8.30;;;;;;;;;;5092781;28;20044;-71
2023/12/02 11:32:51;;;;;;;21.92;9.80;;;;;;;;;;5093150;28;20040;-70
2023/12/02 11:35:32;;;;;;;14.38;8.85;;;;;;;;;;5093199;28;20071;-70
2023/12/02 11:37:59;;;;;;;16.55;9.93;;;;;;;;;;5093127;28;20055;-71
2023/12/02 11:40:29;;;;;;;15.18;9.50;;;;;;;;;;5093226;28;20040;-70
2023/12/02 11:43:11;;;;;;;12.13;8.15;;;;;;;;;;5094594;28;20047;-71
2023/12/02 11:45:42;;;;;;;15.27;9.52;;;;;;;;;;5092984;28;20047;-71
2023/12/02 11:48:26;;;;;;;14.73;8.98;;;;;;;;;;5092903;28;20050;-71
2023/12/02 11:51:04;;;;;;;11.52;6.63;;;;;;;;;;5092392;28;20130;-71
2023/12/02 11:53:30;;;;;;;11.38;6.82;;;;;;;;;;5093009;28;20570;-71
2023/12/02 11:56:05;;;;;;;9.38;6.22;;;;;;;;;;5092826;28;20040;-69
2023/12/02 11:58:50;;;;;;;9.70;5.95;;;;;;;;;;5092547;28;20032;-71
2023/12/02 12:01:25;;;;;;;10.88;6.22;;;;;;;;;;5092744;28;20079;-69
2023/12/02 12:03:51;;;;;;;7.95;5.18;;;;;;;;;;5092540;28;20136;-71
2023/12/02 12:06:24;;;;;;;7.03;4.72;;;;;;;;;;5092474;28;20507;-71
2023/12/02 12:08:56;;;;;;;6.38;4.10;;;;;;;;;;5092333;28;20543;-71
2023/12/02 12:11:22;;;;;;;6.32;4.43;;;;;;;;;;5092193;28;20055;-71
2023/12/02 12:13:49;;;;;;;8.35;5.25;;;;;;;;;;5092600;28;20152;-71
2023/12/02 12:16:15;;;;;;;8.07;5.35;;;;;;;;;;5093856;28;20036;-71
2023/12/02 12:18:42;;;;;;;8.73;4.28;;;;;;;;;;5092250;28;20174;-71
2023/12/02 12:21:09;;;;;;;6.75;4.32;;;;;;;;;;5092253;28;20449;-71
2023/12/02 12:23:35;;;;;;;8.63;4.00;;;;;;;;;;5075268;28;20040;-71
2023/12/02 12:26:03;;;;;;;6.32;3.78;;;;;;;;;;5092032;28;20040;-69
2023/12/02 12:28:31;;;;;;;7.50;4.70;;;;;;;;;;5092210;28;20048;-71
2023/12/02 12:30:57;;;;;;;9.30;5.13;;;;;;;;;;5091995;28;20118;-71
2023/12/02 12:33:23;;;;;;;5.78;3.80;;;;;;;;;;5092202;28;20050;-70
2023/12/02 12:35:49;;;;;;;8.93;4.68;;;;;;;;;;5075154;28;20036;-71
2023/12/02 12:38:16;;;;;;;9.50;5.47;;;;;;;;;;5091670;28;20388;-71
2023/12/02 12:40:43;;;;;;;17.38;6.65;;;;;;;;;;5091972;28;20090;-71
2023/12/02 12:43:12;;;;;;;8.85;6.35;;;;;;;;;;5092031;28;20454;-71
2023/12/02 12:45:39;;;;;;;8.20;5.15;;;;;;;;;;5074927;28;20080;-71
2023/12/02 12:48:05;;;;;;;11.65;6.68;;;;;;;;;;5091570;28;20044;-71
2023/12/02 12:50:32;;;;;;;8.18;4.82;;;;;;;;;;5075002;28;20089;-72
2023/12/02 12:53:06;;;;;;;10.25;5.03;;;;;;;;;;5074701;28;20051;-71
2023/12/02 12:55:34;;;;;;;6.30;4.20;;;;;;;;;;5074767;28;20043;-71
2023/12/02 12:58:07;;;;;;;5.97;4.43;;;;;;;;;;5091261;28;20043;-71
2023/12/02 13:00:35;;;;;;;6.50;4.13;;;;;;;;;;5091452;28;20151;-69
2023/12/02 13:03:01;;;;;;;9.60;4.00;;;;;;;;;;5091320;28;20040;-71
2023/12/02 13:05:34;;;;;;;7.43;4.25;;;;;;;;;;5091462;28;20076;-71
2023/12/02 13:08:08;;;;;;;11.30;4.57;;;;;;;;;;5091133;28;20051;-71
2023/12/02 13:10:35;;;;;;;7.30;4.18;;;;;;;;;;5091072;28;20047;-71
2023/12/02 13:13:06;;;;;;;5.28;3.75;;;;;;;;;;5091473;28;20500;-71
2023/12/02 13:15:33;;;;;;;7.10;4.07;;;;;;;;;;5091413;28;20040;-70
2023/12/02 13:18:00;;;;;;;6.05;4.25;;;;;;;;;;5091071;28;20504;-71
2023/12/02 13:20:28;;;;;;;6.07;3.85;;;;;;;;;;5091019;28;20043;-71
2023/12/02 13:22:56;;;;;;;5.45;3.45;;;;;;;;;;5091994;28;20044;-72
2023/12/02 13:25:25;;;;;;;8.73;4.10;;;;;;;;;;5091024;28;20086;-71
2023/12/02 13:27:54;;;;;;;9.02;3.95;;;;;;;;;;5091140;28;20043;-71
2023/12/02 13:30:22;;;;;;;6.32;4.32;;;;;;;;;;5090659;28;20044;-71
2023/12/02 13:32:49;;;;;;;6.32;3.72;;;;;;;;;;5090764;28;20527;-71
2023/12/02 13:35:15;;;;;;;4.97;3.75;;;;;;;;;;5090834;28;20499;-71
2023/12/02 13:38:00;;;;;;;5.47;3.80;;;;;;;;;;5090806;28;20040;-71
2023/12/02 13:40:46;;;;;;;5.57;3.95;;;;;;;;;;5090930;28;20044;-70
2023/12/02 13:43:13;;;;;;;10.05;4.30;;;;;;;;;;5083804;28;20458;-71
2023/12/02 13:45:46;;;;;;;10.38;4.45;;;;;;;;;;5091024;28;20410;-70
2023/12/02 13:48:29;;;;;;;5.50;3.70;;;;;;;;;;5090413;28;20043;-69
2023/12/02 13:51:21;;;;;;;7.33;3.60;;;;;;;;;;5091557;28;20032;-70
2023/12/02 13:53:52;;;;;;;8.45;4.10;;;;;;;;;;5090646;28;20564;-72
2023/12/02 13:56:27;;;;;;;6.00;4.00;;;;;;;;;;5090625;28;20036;-72
2023/12/02 13:58:53;;;;;;;5.25;3.58;;;;;;;;;;5090534;28;20131;-69
2023/12/02 14:01:24;;;;;;;6.82;3.70;;;;;;;;;;5090395;28;20079;-69
2023/12/02 14:03:53;;;;;;;5.78;3.70;;;;;;;;;;5090447;28;20545;-70
2023/12/02 14:06:19;;;;;;;5.18;3.33;;;;;;;;;;5090462;28;20057;-70
2023/12/02 14:08:51;;;;;;;5.47;4.18;;;;;;;;;;5073601;28;20039;-69
2023/12/02 14:11:22;;;;;;;6.05;3.42;;;;;;;;;;5090224;28;20040;-71